Time,TemperatureF,DewpointF,PressureIn,WindDirection,WindDirectionDegrees,WindSpeedMPH,WindSpeedGustMPH,Humidity,HourlyPrecipIn,Conditions,Clouds,dailyrainin,SoftwareType,DateUTC
2013-11-18 00:00:00,61.0,52.3,29.35,South,184,7.0,7.0,73,0.00,,,0.08,Wunderground v.1.13,2013-11-18 05:00:00,
2013-11-18 00:30:00,61.6,52.9,29.30,SSE,158,11.0,11.0,73,0.00,,,0.09,Wunderground v.1.13,2013-11-18 05:30:00,
2013-11-18 01:00:00,60.2,54.3,29.27,South,173,9.0,9.0,81,0.16,,,0.11,Wunderground v.1.13,2013-11-18 06:00:00,
2013-11-18 01:30:00,59.9,54.4,29.23,South,182,9.0,9.0,82,0.00,,,0.11,Wunderground v.1.13,2013-11-18 06:30:00,
2013-11-18 02:00:00,60.2,54.3,29.22,South,174,8.0,21.0,81,0.00,,,0.12,Wunderground v.1.13,2013-11-18 07:00:00,
2013-11-18 02:30:00,59.6,55.1,29.20,SW,221,10.0,10.0,85,0.00,,,0.13,Wunderground v.1.13,2013-11-18 07:30:00,
2013-11-18 03:00:00,55.9,50.2,29.27,WSW,238,10.0,21.0,81,0.05,,,0.18,Wunderground v.1.13,2013-11-18 08:00:00,
2013-11-18 03:30:00,53.9,49.8,29.27,SSW,197,9.0,21.0,86,0.09,,,0.23,Wunderground v.1.13,2013-11-18 08:30:00,
2013-11-18 04:00:00,52.3,49.8,29.25,SSW,196,10.0,10.0,91,0.09,,,0.33,Wunderground v.1.13,2013-11-18 09:00:00,
2013-11-18 04:30:00,52.8,48.7,29.24,South,180,10.0,21.0,86,0.00,,,0.33,Wunderground v.1.13,2013-11-18 09:30:00,
2013-11-18 05:00:00,53.5,45.4,29.23,SW,219,12.0,12.0,74,0.00,,,0.33,Wunderground v.1.13,2013-11-18 10:00:00,
2013-11-18 05:30:00,53.5,44.0,29.22,West,281,14.0,14.0,70,0.00,,,0.33,Wunderground v.1.13,2013-11-18 10:30:00,
2013-11-18 06:00:00,52.6,43.5,29.23,SW,225,13.0,13.0,71,0.00,,,0.33,Wunderground v.1.13,2013-11-18 11:00:00,
2013-11-18 06:30:00,51.4,43.0,29.26,WSW,237,15.0,15.0,73,0.00,,,0.33,Wunderground v.1.13,2013-11-18 11:30:00,
2013-11-18 07:00:00,51.1,42.0,29.27,SW,220,13.0,24.0,71,0.00,,,0.33,Wunderground v.1.13,2013-11-18 12:00:00,
2013-11-18 07:30:00,51.3,41.1,29.30,WSW,248,12.0,21.0,68,0.00,,,0.33,Wunderground v.1.13,2013-11-18 12:30:00,
2013-11-18 08:00:00,51.1,41.3,29.31,SSW,205,10.0,21.0,69,0.00,,,0.33,Wunderground v.1.13,2013-11-18 13:00:00,
2013-11-18 08:30:00,51.4,41.6,29.31,SSW,198,12.0,21.0,69,0.00,,,0.33,Wunderground v.1.13,2013-11-18 13:30:00,
2013-11-18 09:00:00,51.7,39.5,29.31,WSW,237,14.0,14.0,63,0.00,,,0.33,Wunderground v.1.13,2013-11-18 14:00:00,
2013-11-18 09:30:00,51.3,39.5,29.32,SW,216,13.0,21.0,64,0.00,,,0.33,Wunderground v.1.13,2013-11-18 14:30:00,
2013-11-18 10:00:00,51.1,38.9,29.33,WSW,244,14.0,14.0,63,0.00,,,0.33,Wunderground v.1.13,2013-11-18 15:00:00,
2013-11-18 10:30:00,50.5,35.4,29.34,WSW,254,13.0,13.0,56,0.00,,,0.33,Wunderground v.1.13,2013-11-18 15:30:00,
2013-11-18 11:00:00,50.2,35.1,29.34,SW,232,11.0,21.0,56,0.00,,,0.33,Wunderground v.1.13,2013-11-18 16:00:00,
2013-11-18 11:30:00,50.2,34.6,29.34,SSW,207,14.0,21.0,55,0.00,,,0.33,Wunderground v.1.13,2013-11-18 16:30:00,
2013-11-18 12:00:00,49.9,34.4,29.34,SW,214,13.0,13.0,55,0.00,,,0.33,Wunderground v.1.13,2013-11-18 17:00:00,
2013-11-18 12:30:00,49.8,34.7,29.35,SW,221,13.0,13.0,56,0.00,,,0.33,Wunderground v.1.13,2013-11-18 17:30:00,
2013-11-18 13:00:00,51.3,33.3,29.34,SW,221,13.0,21.0,50,0.00,,,0.00,Wunderground v.1.13,2013-11-18 18:00:00,
2013-11-18 13:30:00,50.4,33.4,29.34,South,187,13.0,21.0,52,0.00,,,0.00,Wunderground v.1.13,2013-11-18 18:30:00,
2013-11-18 14:00:00,50.1,31.7,29.35,WSW,240,13.0,21.0,49,0.00,,,0.00,Wunderground v.1.13,2013-11-18 19:00:00,
2013-11-18 14:30:00,49.9,29.9,29.36,SW,223,16.0,21.0,46,0.00,,,0.00,Wunderground v.1.13,2013-11-18 19:30:00,
2013-11-18 15:00:00,49.4,30.5,29.38,SSW,208,13.0,21.0,48,0.00,,,0.00,Wunderground v.1.13,2013-11-18 20:00:00,
2013-11-18 15:30:00,48.9,32.0,29.39,SW,220,11.0,11.0,52,0.00,,,0.00,Wunderground v.1.13,2013-11-18 20:30:00,
2013-11-18 16:00:00,48.3,31.9,29.41,SW,232,13.0,13.0,53,0.00,,,0.00,Wunderground v.1.13,2013-11-18 21:00:00,
2013-11-18 16:30:00,47.7,33.2,29.42,SW,214,9.0,9.0,57,0.00,,,0.00,Wunderground v.1.13,2013-11-18 21:30:00,
2013-11-18 17:00:00,47.3,33.7,29.43,SW,234,10.0,21.0,59,0.00,,,0.00,Wunderground v.1.13,2013-11-18 22:00:00,
2013-11-18 17:30:00,46.5,32.9,29.44,SSW,208,9.0,21.0,59,0.00,,,0.00,Wunderground v.1.13,2013-11-18 22:30:00,
2013-11-18 18:00:00,46.1,33.4,29.45,WSW,237,9.0,21.0,61,0.00,,,0.00,Wunderground v.1.13,2013-11-18 23:00:00,
2013-11-18 18:30:00,41.6,36.2,29.48,SW,224,7.0,21.0,81,0.00,,,0.01,Wunderground v.1.13,2013-11-18 23:30:00,
2013-11-18 19:00:00,42.3,32.1,29.49,SSW,198,9.0,21.0,67,0.00,,,0.01,Wunderground v.1.13,2013-11-19 00:00:00,
2013-11-18 19:30:00,42.5,31.6,29.49,SW,223,6.0,21.0,65,0.00,,,0.01,Wunderground v.1.13,2013-11-19 00:30:00,
2013-11-18 20:00:00,42.2,29.3,29.50,SW,232,8.0,8.0,60,0.00,,,0.01,Wunderground v.1.13,2013-11-19 01:00:00,
2013-11-18 20:30:00,41.5,27.8,29.52,WSW,258,9.0,21.0,58,0.00,,,0.01,Wunderground v.1.13,2013-11-19 01:30:00,
2013-11-18 21:00:00,41.2,27.1,29.53,WSW,247,9.0,9.0,57,0.00,,,0.01,Wunderground v.1.13,2013-11-19 02:00:00,
2013-11-18 21:30:00,40.8,27.2,29.53,SSW,194,9.0,9.0,58,0.00,,,0.01,Wunderground v.1.13,2013-11-19 02:30:00,
2013-11-18 22:00:00,40.6,27.0,29.54,NW,321,7.0,21.0,58,0.00,,,0.01,Wunderground v.1.13,2013-11-19 03:00:00,
2013-11-18 22:30:00,40.1,25.6,29.55,SW,227,12.0,21.0,56,0.00,,,0.01,Wunderground v.1.13,2013-11-19 03:30:00,
2013-11-18 23:00:00,39.5,26.3,29.56,NW,319,7.0,21.0,59,0.00,,,0.01,Wunderground v.1.13,2013-11-19 04:00:00,
2013-11-18 23:30:00,32.8,29.6,29.60,WNW,286,8.0,8.0,88,0.00,,,0.02,Wunderground v.1.13,2013-11-19 04:30:00,